Time;durP1;ratioP1;P1;durP2;ratioP2;P2;SDS_P1;SDS_P2;PMS_P1;PMS_P2;Temp;Humidity;BMP_temperature;BMP_pressure;BME280_temperature;BME280_humidity;BME280_pressure;Samples;Min_cycle;Max_cycle;Signal;HPM_P1;HPM_P2
2021/08/07 04:51:53;;;;;;;4.72;2.75;;;;;;;;;;5366027;22;20634;-83
2021/08/07 04:54:22;;;;;;;5.38;2.90;;;;;;;;;;5031110;28;20067;-83
2021/08/07 04:56:49;;;;;;;5.30;3.28;;;;;;;;;;5032385;28;20041;-83
2021/08/07 04:59:17;;;;;;;7.40;3.28;;;;;;;;;;5032135;28;20782;-83
2021/08/07 05:01:44;;;;;;;7.88;3.85;;;;;;;;;;5019270;28;20497;-83
2021/08/07 05:04:13;;;;;;;4.35;3.00;;;;;;;;;;5028995;28;20048;-83
2021/08/07 05:06:44;;;;;;;6.65;2.75;;;;;;;;;;4997930;28;20504;-83
2021/08/07 05:09:13;;;;;;;3.13;2.80;;;;;;;;;;5028466;28;20049;-83
2021/08/07 05:11:56;;;;;;;7.47;3.00;;;;;;;;;;5028437;28;20463;-83
2021/08/07 05:14:23;;;;;;;5.43;2.90;;;;;;;;;;5028719;28;20041;-83
2021/08/07 05:16:51;;;;;;;8.18;3.00;;;;;;;;;;5029748;28;20045;-83
2021/08/07 05:19:18;;;;;;;6.20;3.00;;;;;;;;;;5028722;28;20068;-83
2021/08/07 05:21:46;;;;;;;6.93;3.15;;;;;;;;;;5012400;28;20077;-83
2021/08/07 05:24:15;;;;;;;7.68;3.45;;;;;;;;;;5029546;28;20045;-83
2021/08/07 05:26:42;;;;;;;5.95;2.60;;;;;;;;;;5036656;28;20115;-82
2021/08/07 05:29:10;;;;;;;4.07;2.90;;;;;;;;;;5058299;28;20025;-83
2021/08/07 05:31:38;;;;;;;6.05;3.17;;;;;;;;;;5052287;28;20049;-84
2021/08/07 05:34:06;;;;;;;4.93;3.00;;;;;;;;;;5058627;28;20072;-84
2021/08/07 05:36:33;;;;;;;6.03;2.90;;;;;;;;;;5042117;28;20065;-83
2021/08/07 05:39:01;;;;;;;4.10;2.80;;;;;;;;;;5052634;28;20084;-83
2021/08/07 05:41:30;;;;;;;3.47;2.70;;;;;;;;;;5037534;28;20115;-84
2021/08/07 05:43:58;;;;;;;7.78;3.22;;;;;;;;;;5016078;28;20037;-84
2021/08/07 05:46:26;;;;;;;4.03;2.92;;;;;;;;;;5034503;28;20061;-83
2021/08/07 05:48:55;;;;;;;3.95;2.75;;;;;;;;;;5016481;28;20132;-84
2021/08/07 05:51:23;;;;;;;3.83;2.90;;;;;;;;;;5013210;28;20510;-83
2021/08/07 05:53:51;;;;;;;5.40;2.83;;;;;;;;;;5025152;28;20042;-84
2021/08/07 05:56:19;;;;;;;5.50;3.28;;;;;;;;;;5039014;28;20030;-83
2021/08/07 05:58:48;;;;;;;5.53;3.20;;;;;;;;;;5008453;28;20042;-83
2021/08/07 06:01:15;;;;;;;28.58;3.45;;;;;;;;;;5000974;28;20038;-83
2021/08/07 06:03:42;;;;;;;5.72;2.97;;;;;;;;;;4998683;28;20061;-83
2021/08/07 06:06:10;;;;;;;4.93;2.97;;;;;;;;;;5011402;28;20057;-82
2021/08/07 06:08:37;;;;;;;4.60;2.85;;;;;;;;;;5006479;28;20053;-83
2021/08/07 06:11:05;;;;;;;8.23;3.17;;;;;;;;;;5006384;28;20073;-83
2021/08/07 06:13:32;;;;;;;4.82;2.63;;;;;;;;;;5021231;28;20102;-83
2021/08/07 06:16:01;;;;;;;6.38;2.90;;;;;;;;;;5021662;28;20096;-83
2021/08/07 06:18:29;;;;;;;5.65;2.53;;;;;;;;;;5001457;28;20046;-84
2021/08/07 06:20:57;;;;;;;3.88;2.10;;;;;;;;;;5013297;28;20046;-83
2021/08/07 06:23:25;;;;;;;5.07;2.10;;;;;;;;;;5020328;28;20596;-84
2021/08/07 06:25:54;;;;;;;5.22;2.17;;;;;;;;;;5015606;28;20076;-84
2021/08/07 06:28:22;;;;;;;8.88;2.47;;;;;;;;;;5016091;28;20046;-84
2021/08/07 06:30:51;;;;;;;4.82;2.17;;;;;;;;;;5003296;28;20073;-84
2021/08/07 06:33:24;;;;;;;5.88;2.60;;;;;;;;;;5013423;28;20034;-84
2021/08/07 06:35:52;;;;;;;5.65;2.22;;;;;;;;;;4995828;28;20049;-84
2021/08/07 06:38:19;;;;;;;4.30;2.15;;;;;;;;;;4996060;28;20046;-84
2021/08/07 06:40:46;;;;;;;3.85;1.88;;;;;;;;;;5025590;28;20033;-84
2021/08/07 06:43:18;;;;;;;5.35;2.10;;;;;;;;;;5004181;28;20583;-84
2021/08/07 06:45:56;;;;;;;4.90;1.90;;;;;;;;;;4995852;28;20050;-84
2021/08/07 06:48:24;;;;;;;3.92;1.90;;;;;;;;;;5007017;28;20056;-82
2021/08/07 06:50:52;;;;;;;4.25;1.70;;;;;;;;;;5014802;28;20050;-82
2021/08/07 06:53:24;;;;;;;4.63;1.80;;;;;;;;;;5015854;28;20093;-82
2021/08/07 06:55:52;;;;;;;3.53;1.48;;;;;;;;;;5015029;28;20125;-81
2021/08/07 06:58:20;;;;;;;3.25;1.80;;;;;;;;;;5012210;28;20049;-80
2021/08/07 07:00:47;;;;;;;5.35;2.00;;;;;;;;;;5007390;28;20148;-81
2021/08/07 07:03:15;;;;;;;7.00;2.25;;;;;;;;;;5024779;28;20406;-82
2021/08/07 07:05:45;;;;;;;4.43;2.15;;;;;;;;;;5006340;28;20279;-83
2021/08/07 07:08:13;;;;;;;3.88;2.05;;;;;;;;;;5021461;28;20041;-82
2021/08/07 07:10:41;;;;;;;4.80;2.58;;;;;;;;;;5031107;28;20041;-84
2021/08/07 07:13:12;;;;;;;3.85;2.10;;;;;;;;;;5013061;28;20495;-83
2021/08/07 07:15:40;;;;;;;4.57;2.33;;;;;;;;;;5003228;28;20038;-85
2021/08/07 07:18:08;;;;;;;9.48;2.40;;;;;;;;;;4997417;28;20069;-83
2021/08/07 07:20:36;;;;;;;4.60;2.53;;;;;;;;;;4998405;28;20083;-84
2021/08/07 07:23:05;;;;;;;5.35;2.15;;;;;;;;;;5006646;28;20461;-84
2021/08/07 07:25:33;;;;;;;4.53;2.53;;;;;;;;;;5028771;28;20083;-83
2021/08/07 07:28:00;;;;;;;8.35;2.55;;;;;;;;;;5029475;28;20034;-84
2021/08/07 07:30:30;;;;;;;11.95;2.53;;;;;;;;;;5014633;28;20328;-84
2021/08/07 07:32:58;;;;;;;4.68;2.63;;;;;;;;;;5013066;28;20152;-84
2021/08/07 07:35:25;;;;;;;3.53;2.10;;;;;;;;;;5029389;28;20486;-83
2021/08/07 07:37:53;;;;;;;5.50;2.33;;;;;;;;;;5014242;28;20044;-83
2021/08/07 07:40:23;;;;;;;7.38;2.50;;;;;;;;;;5010033;28;20037;-85
2021/08/07 07:42:50;;;;;;;5.05;2.63;;;;;;;;;;5006914;28;20050;-84
2021/08/07 07:45:18;;;;;;;3.70;2.20;;;;;;;;;;5005266;28;20041;-85
2021/08/07 07:47:46;;;;;;;4.68;2.28;;;;;;;;;;5004528;28;20092;-84
2021/08/07 07:50:15;;;;;;;5.85;2.28;;;;;;;;;;5008532;28;20141;-84
2021/08/07 07:52:48;;;;;;;5.72;2.50;;;;;;;;;;5000213;28;20542;-85
2021/08/07 07:55:16;;;;;;;4.72;2.47;;;;;;;;;;5009337;28;20037;-83
2021/08/07 07:57:46;;;;;;;4.93;2.17;;;;;;;;;;5030045;28;20495;-84
2021/08/07 08:00:15;;;;;;;4.15;2.17;;;;;;;;;;5012014;28;20029;-85
2021/08/07 08:02:51;;;;;;;;;;;;;;;;;;5022547;28;20034;-85
2021/08/07 08:05:26;;;;;;;5.78;2.33;;;;;;;;;;5028014;28;19925;-84
2021/08/07 08:07:56;;;;;;;6.90;2.30;;;;;;;;;;5023143;28;20038;-84
2021/08/07 08:10:38;;;;;;;14.20;2.60;;;;;;;;;;5011827;28;20318;-88
2021/08/07 08:13:09;;;;;;;5.63;2.80;;;;;;;;;;5018347;28;20049;-84
2021/08/07 08:15:40;;;;;;;4.72;2.45;;;;;;;;;;5054866;28;20048;-83
2021/08/07 08:18:08;;;;;;;5.35;2.25;;;;;;;;;;5046328;28;20049;-84
2021/08/07 08:20:38;;;;;;;3.47;2.50;;;;;;;;;;5055525;28;20072;-85
2021/08/07 08:23:06;;;;;;;4.20;2.15;;;;;;;;;;5036946;28;20049;-82
2021/08/07 08:25:34;;;;;;;5.30;2.25;;;;;;;;;;5026685;28;20056;-82
2021/08/07 08:28:01;;;;;;;7.38;2.92;;;;;;;;;;5015729;28;20045;-82
2021/08/07 08:30:31;;;;;;;4.15;2.10;;;;;;;;;;5013136;28;20541;-81
2021/08/07 08:32:59;;;;;;;4.47;1.90;;;;;;;;;;5012885;28;20076;-81
2021/08/07 08:35:26;;;;;;;5.90;1.98;;;;;;;;;;5030726;28;20121;-82
2021/08/07 08:37:54;;;;;;;2.97;1.80;;;;;;;;;;5012746;28;20045;-83
2021/08/07 08:40:22;;;;;;;3.35;1.80;;;;;;;;;;5010501;28;20410;-82
2021/08/07 08:42:50;;;;;;;3.85;1.73;;;;;;;;;;5006211;28;20072;-81
2021/08/07 08:45:17;;;;;;;4.60;1.88;;;;;;;;;;5001165;28;20047;-82
2021/08/07 08:47:46;;;;;;;3.17;1.95;;;;;;;;;;5024683;28;20434;-81
2021/08/07 08:50:15;;;;;;;3.95;1.83;;;;;;;;;;5002339;28;20369;-82
2021/08/07 08:52:43;;;;;;;7.40;2.25;;;;;;;;;;5006606;28;20136;-82
2021/08/07 08:55:16;;;;;;;4.60;2.47;;;;;;;;;;5010720;28;20380;-86
2021/08/07 08:57:47;;;;;;;3.38;1.80;;;;;;;;;;5010268;28;20052;-83
2021/08/07 09:00:15;;;;;;;4.72;2.17;;;;;;;;;;5005708;28;20046;-86
2021/08/07 09:02:44;;;;;;;6.43;2.17;;;;;;;;;;5024891;28;20458;-81
2021/08/07 09:05:15;;;;;;;6.15;2.33;;;;;;;;;;5027555;28;20124;-80
2021/08/07 09:07:44;;;;;;;3.70;2.47;;;;;;;;;;5008517;28;20049;-82
2021/08/07 09:10:14;;;;;;;4.22;2.55;;;;;;;;;;5002785;28;20081;-84
2021/08/07 09:12:46;;;;;;;5.40;2.28;;;;;;;;;;5003148;28;20141;-86
2021/08/07 09:15:25;;;;;;;5.55;2.45;;;;;;;;;;5006021;28;20053;-84
2021/08/07 09:18:12;;;;;;;3.38;1.98;;;;;;;;;;5010590;28;20042;-85
2021/08/07 09:20:47;;;;;;;6.30;1.70;;;;;;;;;;5009455;28;20038;-83
2021/08/07 09:23:21;;;;;;;6.47;1.83;;;;;;;;;;5029314;28;20037;-83
2021/08/07 09:25:49;;;;;;;4.00;1.92;;;;;;;;;;4998892;28;20121;-85
2021/08/07 09:28:25;;;;;;;6.15;1.77;;;;;;;;;;5028054;28;20042;-85
2021/08/07 09:31:15;;;;;;;5.07;2.00;;;;;;;;;;4998204;28;20048;-85
2021/08/07 09:33:46;;;;;;;5.07;1.88;;;;;;;;;;5026377;28;20041;-84
2021/08/07 09:36:21;;;;;;;6.53;1.80;;;;;;;;;;4995155;28;20068;-84
2021/08/07 09:38:48;;;;;;;5.15;1.65;;;;;;;;;;5020579;28;20042;-81
2021/08/07 09:41:17;;;;;;;3.15;1.50;;;;;;;;;;5012049;28;20113;-81
2021/08/07 09:43:52;;;;;;;3.33;1.55;;;;;;;;;;5032538;28;20045;-81
2021/08/07 09:46:24;;;;;;;7.40;1.70;;;;;;;;;;5012835;28;20045;-81
2021/08/07 09:49:04;;;;;;;4.28;1.83;;;;;;;;;;5000653;28;20046;-82
2021/08/07 09:51:35;;;;;;;4.43;1.70;;;;;;;;;;4993032;28;20049;-83
2021/08/07 09:54:11;;;;;;;3.67;2.00;;;;;;;;;;5004809;28;20045;-80
2021/08/07 09:56:59;;;;;;;5.00;2.00;;;;;;;;;;5027392;28;20056;-81
2021/08/07 09:59:34;;;;;;;5.38;2.22;;;;;;;;;;5028357;28;20544;-80
2021/08/07 10:02:19;;;;;;;5.03;1.73;;;;;;;;;;5004220;28;20052;-81
2021/08/07 10:04:47;;;;;;;2.35;1.33;;;;;;;;;;5035105;28;20048;-81
2021/08/07 10:07:17;;;;;;;3.72;1.55;;;;;;;;;;5021844;28;20034;-83
2021/08/07 10:10:21;;;;;;;8.30;1.90;;;;;;;;;;5023884;28;20525;-80
2021/08/07 10:12:52;;;;;;;4.78;1.90;;;;;;;;;;5012832;28;20037;-80
2021/08/07 10:15:29;;;;;;;2.20;1.38;;;;;;;;;;5008427;28;20046;-81
2021/08/07 10:17:57;;;;;;;5.35;2.10;;;;;;;;;;5027832;28;20033;-81
2021/08/07 10:20:25;;;;;;;3.33;1.60;;;;;;;;;;5052820;28;20052;-80
2021/08/07 10:22:54;;;;;;;3.85;1.60;;;;;;;;;;5016879;28;20478;-81
2021/08/07 10:29:00;;;;;;;6.22;1.67;;;;;;;;;;4967675;28;20125;-67
2021/08/07 10:31:29;;;;;;;5.13;2.30;;;;;;;;;;4948585;28;20043;-67
2021/08/07 10:33:59;;;;;;;6.88;1.98;;;;;;;;;;4955604;28;20043;-66
2021/08/07 10:36:27;;;;;;;5.80;1.77;;;;;;;;;;4952726;28;20051;-66
2021/08/07 10:38:57;;;;;;;5.82;1.83;;;;;;;;;;4937424;28;20051;-66
2021/08/07 10:41:28;;;;;;;5.57;1.70;;;;;;;;;;4970729;28;20570;-68
2021/08/07 10:43:56;;;;;;;11.75;2.00;;;;;;;;;;4945827;29;20051;-68
2021/08/07 10:46:25;;;;;;;5.32;1.80;;;;;;;;;;4939142;28;20040;-68
2021/08/07 10:48:53;;;;;;;4.22;1.67;;;;;;;;;;4956514;28;20059;-67
2021/08/07 10:51:34;;;;;;;5.47;2.03;;;;;;;;;;4949232;28;20553;-67
2021/08/07 10:54:04;;;;;;;8.63;1.73;;;;;;;;;;4954508;28;20074;-67
2021/08/07 10:56:39;;;;;;;4.35;1.75;;;;;;;;;;4960425;28;20043;-67
2021/08/07 10:59:22;;;;;;;4.43;1.80;;;;;;;;;;4966705;28;20434;-68
2021/08/07 11:01:50;;;;;;;3.90;1.60;;;;;;;;;;4954032;29;20051;-68
2021/08/07 11:04:19;;;;;;;5.47;1.75;;;;;;;;;;4970777;28;20142;-67
2021/08/07 11:06:55;;;;;;;4.32;1.55;;;;;;;;;;4963651;28;20039;-67
2021/08/07 11:09:26;;;;;;;32.85;19.88;;;;;;;;;;4955434;28;20299;-67
2021/08/07 11:12:08;;;;;;;9.45;5.38;;;;;;;;;;4970615;28;20069;-67
2021/08/07 11:14:47;;;;;;;8.02;2.67;;;;;;;;;;4956619;28;20129;-67
2021/08/07 11:17:32;;;;;;;4.95;2.08;;;;;;;;;;4954412;29;20447;-67
2021/08/07 11:20:05;;;;;;;4.35;1.77;;;;;;;;;;4954196;29;20051;-67
2021/08/07 11:22:51;;;;;;;6.60;2.03;;;;;;;;;;4953131;28;20101;-67
2021/08/07 11:25:23;;;;;;;10.07;2.17;;;;;;;;;;4953063;29;20062;-67
2021/08/07 11:28:04;;;;;;;5.75;1.70;;;;;;;;;;4965247;28;20133;-67
2021/08/07 11:30:32;;;;;;;7.50;1.90;;;;;;;;;;4955778;28;20066;-67
2021/08/07 11:33:21;;;;;;;4.88;1.83;;;;;;;;;;4956259;28;20105;-67
2021/08/07 11:36:08;;;;;;;5.88;1.90;;;;;;;;;;4973747;28;20545;-67
2021/08/07 11:38:35;;;;;;;4.80;2.00;;;;;;;;;;4973028;28;20094;-66
2021/08/07 11:41:05;;;;;;;8.02;1.88;;;;;;;;;;4985781;28;20053;-68
2021/08/07 11:43:33;;;;;;;6.28;1.88;;;;;;;;;;4979324;28;20043;-66
2021/08/07 11:46:05;;;;;;;4.43;1.60;;;;;;;;;;4973847;28;20042;-68
2021/08/07 11:48:33;;;;;;;5.07;1.77;;;;;;;;;;4973239;28;20046;-66
2021/08/07 11:51:01;;;;;;;2.80;1.50;;;;;;;;;;4973382;28;20126;-68
2021/08/07 11:53:29;;;;;;;5.65;1.75;;;;;;;;;;4972688;28;20082;-68
2021/08/07 11:55:57;;;;;;;8.00;2.00;;;;;;;;;;4973582;28;20049;-68
2021/08/07 11:58:26;;;;;;;6.95;1.70;;;;;;;;;;4972749;28;20058;-68
2021/08/07 12:00:57;;;;;;;4.90;1.80;;;;;;;;;;4972867;28;20522;-68
2021/08/07 12:03:25;;;;;;;6.95;2.00;;;;;;;;;;4956120;28;20109;-68
2021/08/07 12:05:53;;;;;;;4.25;1.67;;;;;;;;;;4972570;28;20137;-68
2021/08/07 12:08:20;;;;;;;5.43;1.92;;;;;;;;;;4972136;28;20042;-68
2021/08/07 12:10:52;;;;;;;6.30;1.58;;;;;;;;;;4973976;28;20391;-66
2021/08/07 12:13:23;;;;;;;7.15;2.17;;;;;;;;;;4972011;28;20465;-68
2021/08/07 12:15:56;;;;;;;6.03;2.13;;;;;;;;;;4972178;28;20039;-65
2021/08/07 12:18:24;;;;;;;7.15;2.22;;;;;;;;;;4972418;28;20137;-67
2021/08/07 12:20:51;;;;;;;4.65;1.73;;;;;;;;;;4972000;28;20046;-68
2021/08/07 12:23:20;;;;;;;3.58;1.60;;;;;;;;;;4972373;28;20130;-68
2021/08/07 12:25:48;;;;;;;8.38;1.75;;;;;;;;;;4973088;28;20047;-66
2021/08/07 12:28:16;;;;;;;5.05;1.90;;;;;;;;;;4971811;28;20396;-67
2021/08/07 12:30:56;;;;;;;6.85;1.83;;;;;;;;;;4975502;28;20050;-66
2021/08/07 12:33:24;;;;;;;5.10;2.03;;;;;;;;;;4972378;28;20507;-67
2021/08/07 12:35:52;;;;;;;5.55;1.73;;;;;;;;;;4971558;28;20133;-67
2021/08/07 12:38:20;;;;;;;8.02;1.98;;;;;;;;;;4971587;28;20302;-67
2021/08/07 12:40:49;;;;;;;4.25;1.80;;;;;;;;;;4982802;28;20050;-66
2021/08/07 12:43:16;;;;;;;3.63;1.40;;;;;;;;;;4980704;28;20215;-67
2021/08/07 12:45:44;;;;;;;6.75;1.95;;;;;;;;;;4972167;28;20043;-68
2021/08/07 12:48:12;;;;;;;4.63;2.10;;;;;;;;;;4971311;28;20065;-68
2021/08/07 12:50:40;;;;;;;7.20;2.08;;;;;;;;;;4971480;28;20627;-68
2021/08/07 12:53:07;;;;;;;5.72;1.60;;;;;;;;;;4971809;28;20417;-68
2021/08/07 12:55:36;;;;;;;4.75;1.48;;;;;;;;;;4971758;28;20526;-67
2021/08/07 12:58:15;;;;;;;4.38;1.70;;;;;;;;;;4954436;28;20680;-67
2021/08/07 13:00:43;;;;;;;4.28;1.75;;;;;;;;;;4971510;28;20462;-68
2021/08/07 13:03:11;;;;;;;2.95;1.42;;;;;;;;;;4971442;28;20430;-68
2021/08/07 13:05:41;;;;;;;7.68;1.70;;;;;;;;;;4971464;28;20038;-67
2021/08/07 13:08:27;;;;;;;6.97;2.05;;;;;;;;;;4971502;28;20410;-68
2021/08/07 13:11:08;;;;;;;4.05;1.80;;;;;;;;;;4971051;28;20141;-68
2021/08/07 13:13:43;;;;;;;5.20;1.77;;;;;;;;;;4970958;28;20051;-67
2021/08/07 13:16:10;;;;;;;4.93;1.70;;;;;;;;;;4971323;28;20121;-68
2021/08/07 13:18:37;;;;;;;5.50;1.75;;;;;;;;;;4971223;28;20042;-68
2021/08/07 13:21:17;;;;;;;4.47;1.90;;;;;;;;;;4971407;28;20051;-67
2021/08/07 13:23:44;;;;;;;5.60;1.70;;;;;;;;;;4971058;28;20074;-68
2021/08/07 13:26:12;;;;;;;5.93;1.63;;;;;;;;;;4971739;28;20410;-68
2021/08/07 13:28:39;;;;;;;7.43;2.25;;;;;;;;;;4971200;28;20134;-68
2021/08/07 13:31:07;;;;;;;5.55;1.98;;;;;;;;;;4971794;28;20055;-67
2021/08/07 13:33:37;;;;;;;5.20;2.30;;;;;;;;;;4971244;28;20049;-68
2021/08/07 13:36:05;;;;;;;6.00;1.83;;;;;;;;;;4971423;28;20093;-68
2021/08/07 13:38:34;;;;;;;6.97;1.85;;;;;;;;;;4971182;28;20145;-68
2021/08/07 13:41:05;;;;;;;6.60;1.90;;;;;;;;;;4983698;28;20050;-68
2021/08/07 13:43:33;;;;;;;9.90;1.88;;;;;;;;;;4977430;28;20039;-68
2021/08/07 13:46:00;;;;;;;6.85;2.30;;;;;;;;;;4973025;28;20035;-67
2021/08/07 13:48:27;;;;;;;6.40;2.00;;;;;;;;;;4975178;28;20047;-68
2021/08/07 13:50:54;;;;;;;8.23;1.85;;;;;;;;;;4974910;28;20049;-68
2021/08/07 13:53:22;;;;;;;4.05;1.50;;;;;;;;;;4974843;28;20069;-67
2021/08/07 13:55:51;;;;;;;3.75;1.60;;;;;;;;;;4974609;28;20049;-67
2021/08/07 13:58:18;;;;;;;4.63;1.60;;;;;;;;;;4974961;28;20113;-65
2021/08/07 14:00:46;;;;;;;7.68;1.90;;;;;;;;;;4974785;28;20133;-66
2021/08/07 14:03:14;;;;;;;7.40;1.67;;;;;;;;;;4976079;28;20051;-66
2021/08/07 14:05:41;;;;;;;5.78;1.98;;;;;;;;;;4975032;28;20503;-66
2021/08/07 14:08:09;;;;;;;4.88;1.70;;;;;;;;;;4974542;28;20057;-67
2021/08/07 14:10:38;;;;;;;7.07;1.95;;;;;;;;;;4974626;28;20046;-67
2021/08/07 14:13:07;;;;;;;3.67;2.15;;;;;;;;;;4975699;28;20398;-67
2021/08/07 14:15:34;;;;;;;6.55;1.80;;;;;;;;;;4974328;28;20482;-67
2021/08/07 14:18:03;;;;;;;5.70;1.73;;;;;;;;;;4974508;28;20550;-66
2021/08/07 14:20:31;;;;;;;5.90;1.83;;;;;;;;;;4974986;28;20057;-67
2021/08/07 14:22:59;;;;;;;8.15;2.17;;;;;;;;;;4974700;28;20395;-67
2021/08/07 14:25:26;;;;;;;3.97;1.80;;;;;;;;;;4974339;28;20047;-67
2021/08/07 14:27:53;;;;;;;4.78;2.05;;;;;;;;;;4956816;28;20061;-67
2021/08/07 14:30:22;;;;;;;5.82;1.80;;;;;;;;;;4974268;28;20452;-67
2021/08/07 14:32:50;;;;;;;4.95;1.55;;;;;;;;;;4974479;28;20109;-67
2021/08/07 14:35:17;;;;;;;3.67;1.50;;;;;;;;;;4973898;28;20086;-67
2021/08/07 14:37:45;;;;;;;5.75;1.85;;;;;;;;;;4975165;28;20047;-66
2021/08/07 14:40:13;;;;;;;4.88;1.92;;;;;;;;;;4980517;28;20046;-66
2021/08/07 14:42:40;;;;;;;5.05;1.90;;;;;;;;;;4987990;28;20043;-67
2021/08/07 14:45:08;;;;;;;6.00;1.98;;;;;;;;;;4974267;28;20368;-67
2021/08/07 14:47:37;;;;;;;5.57;1.88;;;;;;;;;;4973920;28;20057;-67
2021/08/07 14:50:05;;;;;;;6.18;1.70;;;;;;;;;;4974586;28;20570;-67
2021/08/07 14:52:32;;;;;;;4.95;1.85;;;;;;;;;;4975239;28;20042;-66
2021/08/07 14:54:59;;;;;;;6.57;1.45;;;;;;;;;;4973333;28;20050;-66
2021/08/07 14:57:27;;;;;;;8.05;2.53;;;;;;;;;;4973038;28;20046;-66
2021/08/07 14:59:54;;;;;;;5.13;2.30;;;;;;;;;;4973508;28;20490;-67
2021/08/07 15:02:21;;;;;;;7.68;1.55;;;;;;;;;;4973347;28;20066;-66
2021/08/07 15:04:50;;;;;;;6.72;2.00;;;;;;;;;;4973617;28;20039;-66
2021/08/07 15:07:17;;;;;;;6.53;2.00;;;;;;;;;;4956166;28;20114;-67
2021/08/07 15:09:44;;;;;;;6.13;2.45;;;;;;;;;;4973169;28;20046;-66
2021/08/07 15:12:12;;;;;;;4.22;1.63;;;;;;;;;;4973005;28;20392;-66
2021/08/07 15:14:39;;;;;;;6.40;2.33;;;;;;;;;;4955689;28;20054;-66
2021/08/07 15:17:07;;;;;;;10.25;2.00;;;;;;;;;;4973492;28;20043;-67
2021/08/07 15:19:34;;;;;;;5.70;1.90;;;;;;;;;;4973429;28;20043;-66
2021/08/07 15:22:02;;;;;;;5.95;2.90;;;;;;;;;;4973007;28;20042;-67
2021/08/07 15:24:30;;;;;;;9.38;2.03;;;;;;;;;;4973182;28;20051;-67
2021/08/07 15:26:58;;;;;;;5.20;1.73;;;;;;;;;;4956143;28;20554;-67
2021/08/07 15:29:25;;;;;;;6.03;1.80;;;;;;;;;;4973594;28;20043;-67
2021/08/07 15:31:53;;;;;;;8.70;2.78;;;;;;;;;;4972959;28;20285;-67
2021/08/07 15:34:20;;;;;;;6.88;2.03;;;;;;;;;;4973220;28;20047;-67
2021/08/07 15:36:47;;;;;;;7.13;1.80;;;;;;;;;;4972893;28;20572;-67
2021/08/07 15:39:16;;;;;;;6.38;1.92;;;;;;;;;;4974615;28;20410;-67
2021/08/07 15:41:43;;;;;;;6.93;2.25;;;;;;;;;;4992651;28;20048;-67
2021/08/07 15:44:10;;;;;;;6.70;1.88;;;;;;;;;;4973013;28;20538;-67
2021/08/07 15:46:39;;;;;;;3.95;1.92;;;;;;;;;;4973521;28;20043;-67
2021/08/07 15:49:06;;;;;;;7.63;2.30;;;;;;;;;;4973701;28;20421;-66
2021/08/07 15:51:33;;;;;;;9.18;1.83;;;;;;;;;;4973626;28;20106;-67
2021/08/07 15:54:00;;;;;;;4.50;1.92;;;;;;;;;;4979720;28;20047;-66
2021/08/07 15:56:29;;;;;;;7.05;2.80;;;;;;;;;;4980223;28;20038;-66
2021/08/07 15:58:56;;;;;;;4.65;2.40;;;;;;;;;;4982363;28;20047;-67
2021/08/07 16:01:24;;;;;;;5.50;2.08;;;;;;;;;;4980034;28;20068;-66
2021/08/07 16:03:51;;;;;;;6.32;2.25;;;;;;;;;;4973631;28;20226;-66
2021/08/07 16:06:18;;;;;;;8.38;3.25;;;;;;;;;;4973493;28;20038;-67
2021/08/07 16:08:46;;;;;;;10.88;3.63;;;;;;;;;;4976674;28;20046;-64
2021/08/07 16:11:13;;;;;;;8.25;3.72;;;;;;;;;;4972047;28;20598;-64
2021/08/07 16:13:42;;;;;;;7.68;3.67;;;;;;;;;;4972962;28;20234;-65
2021/08/07 16:16:09;;;;;;;8.27;3.53;;;;;;;;;;4972382;28;20054;-65
2021/08/07 16:18:37;;;;;;;11.07;4.05;;;;;;;;;;4972225;28;20055;-64
2021/08/07 16:21:05;;;;;;;7.32;3.00;;;;;;;;;;4971818;28;20129;-65
2021/08/07 16:23:32;;;;;;;5.35;2.38;;;;;;;;;;4972045;28;20047;-66
2021/08/07 16:25:59;;;;;;;6.55;2.22;;;;;;;;;;4972066;28;20517;-65
2021/08/07 16:28:27;;;;;;;4.03;2.40;;;;;;;;;;4971836;28;20050;-65
2021/08/07 16:30:55;;;;;;;6.93;2.45;;;;;;;;;;4971874;28;20054;-65
2021/08/07 16:33:23;;;;;;;4.10;2.50;;;;;;;;;;4971448;28;20046;-65
2021/08/07 16:35:50;;;;;;;6.43;2.70;;;;;;;;;;4971559;28;20070;-65
2021/08/07 16:38:17;;;;;;;5.05;3.50;;;;;;;;;;4971390;28;20503;-65
2021/08/07 16:40:46;;;;;;;5.15;3.10;;;;;;;;;;4971601;28;20065;-65
2021/08/07 16:43:15;;;;;;;6.78;3.10;;;;;;;;;;4981700;28;20589;-65
2021/08/07 16:45:42;;;;;;;6.20;3.13;;;;;;;;;;4991017;28;20521;-65
2021/08/07 16:48:11;;;;;;;10.45;3.90;;;;;;;;;;4973358;28;20046;-66
2021/08/07 16:50:40;;;;;;;8.48;3.70;;;;;;;;;;4990751;28;20050;-65
2021/08/07 16:53:07;;;;;;;6.90;3.70;;;;;;;;;;4990993;28;20050;-65
2021/08/07 16:55:34;;;;;;;5.63;3.38;;;;;;;;;;4990657;28;20149;-66
2021/08/07 16:58:02;;;;;;;6.20;2.92;;;;;;;;;;4990717;28;20061;-66
2021/08/07 17:00:29;;;;;;;6.20;3.30;;;;;;;;;;4990846;28;20042;-66
2021/08/07 17:02:56;;;;;;;9.77;3.90;;;;;;;;;;4990926;28;20050;-66
2021/08/07 17:05:25;;;;;;;8.88;3.70;;;;;;;;;;4973754;28;20042;-66
2021/08/07 17:07:52;;;;;;;6.78;3.88;;;;;;;;;;4990942;28;20060;-66
2021/08/07 17:10:20;;;;;;;8.48;3.80;;;;;;;;;;4974152;28;20050;-65
2021/08/07 17:12:50;;;;;;;6.13;3.67;;;;;;;;;;4991253;28;20046;-66
2021/08/07 17:15:18;;;;;;;8.75;4.35;;;;;;;;;;4990831;28;20045;-65
2021/08/07 17:17:45;;;;;;;8.02;3.38;;;;;;;;;;4990633;28;20050;-65
2021/08/07 17:20:13;;;;;;;7.47;4.00;;;;;;;;;;4990476;28;20060;-66
2021/08/07 17:22:42;;;;;;;5.80;3.53;;;;;;;;;;4990529;28;20046;-66
2021/08/07 17:25:10;;;;;;;8.45;4.30;;;;;;;;;;4990699;28;20379;-66
2021/08/07 17:27:37;;;;;;;8.65;3.63;;;;;;;;;;4990143;28;20058;-66
2021/08/07 17:30:04;;;;;;;6.25;3.95;;;;;;;;;;4972960;28;20057;-66
2021/08/07 17:32:32;;;;;;;8.95;4.18;;;;;;;;;;4990898;28;20050;-66
2021/08/07 17:34:59;;;;;;;7.05;4.50;;;;;;;;;;4990998;28;20073;-66
2021/08/07 17:37:26;;;;;;;11.43;4.35;;;;;;;;;;4990958;28;20498;-66
2021/08/07 17:39:56;;;;;;;8.98;4.20;;;;;;;;;;4990539;28;20572;-66
2021/08/07 17:42:23;;;;;;;9.27;4.10;;;;;;;;;;4969428;28;20053;-66
2021/08/07 17:44:50;;;;;;;9.27;3.95;;;;;;;;;;4971072;28;20057;-66
2021/08/07 17:47:18;;;;;;;5.82;3.95;;;;;;;;;;4970961;28;20039;-66
2021/08/07 17:49:45;;;;;;;7.47;4.60;;;;;;;;;;4971065;28;20471;-66
2021/08/07 17:52:14;;;;;;;10.20;3.97;;;;;;;;;;4970880;28;20058;-66
2021/08/07 17:54:41;;;;;;;7.25;3.35;;;;;;;;;;4971107;28;20042;-66
2021/08/07 17:57:11;;;;;;;7.20;3.05;;;;;;;;;;4971069;28;20055;-66
2021/08/07 17:59:38;;;;;;;8.25;3.47;;;;;;;;;;4970858;28;20054;-66
2021/08/07 18:02:05;;;;;;;9.68;4.28;;;;;;;;;;4970934;28;20055;-66
2021/08/07 18:04:33;;;;;;;8.40;3.88;;;;;;;;;;4971493;28;20055;-66
2021/08/07 18:07:00;;;;;;;6.47;3.25;;;;;;;;;;4970914;28;20580;-66
2021/08/07 18:09:27;;;;;;;9.95;4.68;;;;;;;;;;4970987;28;20065;-66
2021/08/07 18:11:55;;;;;;;11.45;4.05;;;;;;;;;;4972984;28;20053;-65
2021/08/07 18:14:24;;;;;;;7.93;3.72;;;;;;;;;;4971442;28;20078;-65
2021/08/07 18:16:52;;;;;;;8.02;3.72;;;;;;;;;;4970636;28;20561;-66
2021/08/07 18:19:19;;;;;;;9.57;4.40;;;;;;;;;;4970330;28;20105;-66
2021/08/07 18:21:46;;;;;;;6.97;4.07;;;;;;;;;;4970648;28;20047;-66
2021/08/07 18:24:14;;;;;;;6.65;4.28;;;;;;;;;;4971008;28;20486;-65
2021/08/07 18:26:41;;;;;;;5.70;4.30;;;;;;;;;;4970481;28;20042;-66
2021/08/07 18:29:08;;;;;;;9.40;5.25;;;;;;;;;;4971557;28;20130;-65
2021/08/07 18:31:37;;;;;;;13.95;9.00;;;;;;;;;;4972329;28;20043;-66
2021/08/07 18:34:04;;;;;;;11.68;6.63;;;;;;;;;;4977609;28;20058;-65
2021/08/07 18:36:33;;;;;;;11.90;5.55;;;;;;;;;;4974551;28;20050;-65
2021/08/07 18:39:00;;;;;;;8.25;4.80;;;;;;;;;;4974649;28;20047;-65
2021/08/07 18:41:27;;;;;;;7.50;4.40;;;;;;;;;;4974633;28;20046;-65
2021/08/07 18:43:55;;;;;;;5.90;4.32;;;;;;;;;;4990316;28;20046;-65
2021/08/07 18:46:22;;;;;;;6.00;4.50;;;;;;;;;;4994232;28;20046;-65
2021/08/07 18:48:51;;;;;;;8.32;4.65;;;;;;;;;;4993479;28;20062;-66
2021/08/07 18:51:20;;;;;;;7.50;4.95;;;;;;;;;;4976384;28;20058;-66
2021/08/07 18:53:47;;;;;;;8.05;6.13;;;;;;;;;;4993296;28;20038;-66
2021/08/07 18:56:17;;;;;;;8.57;5.45;;;;;;;;;;4992872;28;20042;-65
2021/08/07 18:58:45;;;;;;;6.95;4.82;;;;;;;;;;4994446;28;20053;-65
2021/08/07 19:01:12;;;;;;;10.75;6.40;;;;;;;;;;4995756;28;20122;-66
2021/08/07 19:03:39;;;;;;;8.10;6.05;;;;;;;;;;4993837;28;20403;-66
2021/08/07 19:06:08;;;;;;;7.63;5.47;;;;;;;;;;4993681;28;20047;-65
2021/08/07 19:08:35;;;;;;;12.68;6.88;;;;;;;;;;4995188;28;20047;-66
2021/08/07 19:11:03;;;;;;;11.93;6.63;;;;;;;;;;4993971;28;20050;-66
2021/08/07 19:13:30;;;;;;;17.80;10.00;;;;;;;;;;4994623;28;20418;-66
2021/08/07 19:15:57;;;;;;;13.15;7.60;;;;;;;;;;4978118;28;20100;-66
2021/08/07 19:18:25;;;;;;;11.00;5.85;;;;;;;;;;4995164;28;20502;-66
2021/08/07 19:20:56;;;;;;;7.82;6.28;;;;;;;;;;4994143;28;20050;-65
2021/08/07 19:23:25;;;;;;;12.75;6.63;;;;;;;;;;4996837;28;20609;-66
2021/08/07 19:25:52;;;;;;;20.38;14.98;;;;;;;;;;4992538;28;20061;-66
2021/08/07 19:28:19;;;;;;;16.20;9.30;;;;;;;;;;4991960;28;20069;-66
2021/08/07 19:30:47;;;;;;;17.60;11.10;;;;;;;;;;4992380;28;20492;-65
2021/08/07 19:33:14;;;;;;;10.90;7.68;;;;;;;;;;4974712;28;20241;-66
2021/08/07 19:35:42;;;;;;;9.98;6.68;;;;;;;;;;4992245;28;20128;-66
2021/08/07 19:38:09;;;;;;;10.23;7.13;;;;;;;;;;4974592;28;20054;-66
2021/08/07 19:40:38;;;;;;;22.42;8.38;;;;;;;;;;4971326;28;20061;-66
2021/08/07 19:43:05;;;;;;;14.50;6.97;;;;;;;;;;4972556;28;20050;-66
2021/08/07 19:45:33;;;;;;;10.70;6.10;;;;;;;;;;4972809;28;20051;-66
2021/08/07 19:48:01;;;;;;;18.25;6.55;;;;;;;;;;4972915;28;20077;-67
2021/08/07 19:50:29;;;;;;;11.60;7.07;;;;;;;;;;4972882;28;20447;-66